createdAt,value
2022-11-25T00:01:45.973Z,8.05
2022-11-25T00:04:18.297Z,8.06
2022-11-25T00:06:50.437Z,8.09
2022-11-25T00:09:22.703Z,8.14
2022-11-25T00:11:54.809Z,8.11
2022-11-25T00:14:27.704Z,8.10
2022-11-25T00:16:59.934Z,8.10
2022-11-25T00:19:32.409Z,8.17
2022-11-25T00:22:04.591Z,8.24
2022-11-25T00:24:36.974Z,8.34
2022-11-25T00:27:09.257Z,8.44
2022-11-25T00:29:41.505Z,8.54
2022-11-25T00:32:13.756Z,8.61
2022-11-25T00:34:45.907Z,8.68
2022-11-25T00:37:18.106Z,8.68
2022-11-25T00:39:50.382Z,8.59
2022-11-25T00:42:39.853Z,8.52
2022-11-25T00:45:12.898Z,8.47
2022-11-25T00:47:45.015Z,8.45
2022-11-25T00:50:17.480Z,8.44
2022-11-25T00:52:49.621Z,8.46
2022-11-25T00:55:21.740Z,8.43
2022-11-25T00:57:53.897Z,8.41
2022-11-25T01:00:26.179Z,8.40
2022-11-25T01:02:58.298Z,8.36
2022-11-25T01:05:30.400Z,8.30
2022-11-25T01:08:02.598Z,8.17
2022-11-25T01:10:34.782Z,8.03
2022-11-25T01:13:06.920Z,7.97
2022-11-25T01:15:40.714Z,7.94
2022-11-25T01:18:12.850Z,7.99
2022-11-25T01:20:45.005Z,8.04
2022-11-25T01:23:17.247Z,8.04
2022-11-25T01:25:49.428Z,8.01
2022-11-25T01:28:21.636Z,7.97
2022-11-25T01:31:03.659Z,7.90
2022-11-25T01:33:36.409Z,7.82
2022-11-25T01:36:11.481Z,7.78
2022-11-25T01:38:43.895Z,7.75
2022-11-25T01:41:17.167Z,7.74
2022-11-25T01:44:10.007Z,7.63
2022-11-25T01:46:59.595Z,7.53
2022-11-25T01:49:36.923Z,7.50
2022-11-25T01:52:14.474Z,7.49
2022-11-25T01:54:50.836Z,7.47
2022-11-25T01:57:26.427Z,7.45
2022-11-25T02:00:00.919Z,7.41
2022-11-25T02:02:33.698Z,7.44
2022-11-25T02:05:05.457Z,7.46
2022-11-25T02:07:39.980Z,7.45
2022-11-25T02:10:15.864Z,7.43
2022-11-25T02:12:48.875Z,7.39
2022-11-25T02:15:22.897Z,7.32
2022-11-25T02:17:55.542Z,7.29
2022-11-25T02:20:27.855Z,7.28
2022-11-25T02:23:04.543Z,7.29
2022-11-25T02:25:38.020Z,7.31
2022-11-25T02:28:13.011Z,7.33
2022-11-25T02:30:45.526Z,7.39
2022-11-25T02:33:17.968Z,7.42
2022-11-25T02:35:53.658Z,7.44
2022-11-25T02:38:31.277Z,7.50
2022-11-25T02:41:06.768Z,7.58
2022-11-25T02:43:38.928Z,7.64
2022-11-25T02:46:16.162Z,7.70
2022-11-25T02:51:45.656Z,7.76
2022-11-25T02:54:19.137Z,7.78
2022-11-25T02:56:51.454Z,7.81
2022-11-25T02:59:24.147Z,7.81
2022-11-25T03:01:54.680Z,7.79
2022-11-25T03:04:26.988Z,7.79
2022-11-25T03:06:59.370Z,7.82
2022-11-25T03:09:31.907Z,7.83
2022-11-25T03:12:22.997Z,7.85
2022-11-25T03:14:58.160Z,7.87
2022-11-25T03:17:31.417Z,7.86
2022-11-25T03:20:05.426Z,7.84
2022-11-25T03:22:38.416Z,7.86
2022-11-25T03:25:12.156Z,7.88
2022-11-25T03:27:45.739Z,7.88
2022-11-25T03:30:21.214Z,7.88
2022-11-25T03:32:54.074Z,7.90
2022-11-25T03:35:27.180Z,7.92
2022-11-25T03:38:00.426Z,7.92
2022-11-25T03:40:33.479Z,7.93
2022-11-25T03:43:06.442Z,7.96
2022-11-25T03:45:39.370Z,7.95
2022-11-25T03:48:12.808Z,7.95
2022-11-25T03:50:46.146Z,7.94
2022-11-25T03:57:31.513Z,7.98
2022-11-25T04:00:04.848Z,8.03
2022-11-25T04:02:37.177Z,8.09
2022-11-25T04:05:10.468Z,8.12
2022-11-25T04:07:44.208Z,8.16
2022-11-25T04:14:38.217Z,8.23
2022-11-25T04:17:10.583Z,8.20
2022-11-25T04:19:42.875Z,8.14
2022-11-25T04:22:15.132Z,8.12
2022-11-25T04:24:47.431Z,8.10
2022-11-25T04:27:20.570Z,8.06
2022-11-25T04:29:52.947Z,8.05
2022-11-25T04:32:25.446Z,8.07
2022-11-25T04:34:57.721Z,8.09
2022-11-25T04:37:29.923Z,8.08
2022-11-25T04:40:02.265Z,8.06
2022-11-25T04:42:34.781Z,8.06
2022-11-25T04:45:23.438Z,8.06
2022-11-25T04:47:56.262Z,8.02
2022-11-25T04:50:28.754Z,8.02
2022-11-25T04:53:01.061Z,8.04
2022-11-25T04:55:33.216Z,8.04
2022-11-25T04:58:05.532Z,8.04
2022-11-25T05:00:37.740Z,8.03
2022-11-25T05:03:10.071Z,8.03
2022-11-25T05:05:42.363Z,8.03
2022-11-25T05:08:14.548Z,8.04
2022-11-25T05:10:46.944Z,8.03
2022-11-25T05:13:19.283Z,8.03
2022-11-25T05:15:51.621Z,8.00
2022-11-25T05:18:23.848Z,7.99
2022-11-25T05:20:56.117Z,7.99
2022-11-25T05:23:28.264Z,8.03
2022-11-25T05:26:03.228Z,7.99
2022-11-25T05:28:35.441Z,7.94
2022-11-25T05:31:07.937Z,7.90
2022-11-25T05:33:40.142Z,7.86
2022-11-25T05:36:13.024Z,7.79
2022-11-25T05:38:45.571Z,7.75
2022-11-25T05:41:17.756Z,7.71
2022-11-25T05:43:50.023Z,7.71
2022-11-25T05:46:22.567Z,7.72
2022-11-25T05:48:57.349Z,7.74
2022-11-25T05:51:33.399Z,7.71
2022-11-25T05:54:05.727Z,7.66
2022-11-25T05:56:38.456Z,7.69
2022-11-25T05:59:10.640Z,7.73
2022-11-25T06:01:42.925Z,7.74
2022-11-25T06:04:15.219Z,7.74
2022-11-25T06:06:47.532Z,7.76
2022-11-25T06:09:19.742Z,7.79
2022-11-25T06:11:51.939Z,7.82
2022-11-25T06:14:24.261Z,7.90
2022-11-25T06:16:56.448Z,7.98
2022-11-25T06:19:28.617Z,8.05
2022-11-25T06:22:01.006Z,8.04
2022-11-25T06:24:33.733Z,8.03
2022-11-25T06:27:06.379Z,8.05
2022-11-25T06:29:38.607Z,8.03
2022-11-25T06:32:10.780Z,8.04
2022-11-25T06:34:43.026Z,8.06
2022-11-25T06:37:15.893Z,8.07
2022-11-25T06:39:48.050Z,8.09
2022-11-25T06:42:20.202Z,8.13
2022-11-25T06:44:52.446Z,8.15
2022-11-25T06:47:24.679Z,8.13
2022-11-25T06:49:56.901Z,8.14
2022-11-25T06:52:29.060Z,8.19
2022-11-25T06:55:01.310Z,8.24
2022-11-25T06:57:33.503Z,8.29
2022-11-25T07:00:07.170Z,8.28
2022-11-25T07:02:44.013Z,8.35
2022-11-25T07:05:17.943Z,8.38
2022-11-25T07:07:50.266Z,8.35
2022-11-25T07:10:22.519Z,8.38
2022-11-25T07:12:54.795Z,8.41
2022-11-25T07:15:27.011Z,8.43
2022-11-25T07:17:59.170Z,8.43
2022-11-25T07:20:32.817Z,8.39
2022-11-25T07:23:05.076Z,8.37
2022-11-25T07:25:37.388Z,8.38
2022-11-25T07:28:09.636Z,8.40
2022-11-25T07:31:22.291Z,8.36
2022-11-25T07:33:34.096Z,8.38
2022-11-25T07:36:08.601Z,8.40
2022-11-25T07:38:46.326Z,8.42
2022-11-25T07:41:20.440Z,8.46
2022-11-25T07:43:54.981Z,8.50
2022-11-25T07:46:30.449Z,8.51
2022-11-25T07:49:04.736Z,8.56
2022-11-25T07:51:38.148Z,8.61
2022-11-25T07:54:12.719Z,8.66
2022-11-25T07:56:45.920Z,8.70
2022-11-25T07:59:19.780Z,8.77
2022-11-25T08:01:53.416Z,8.84
2022-11-25T08:04:25.901Z,8.85
2022-11-25T08:06:58.100Z,8.84
2022-11-25T08:09:30.471Z,8.89
2022-11-25T08:12:02.756Z,8.97
2022-11-25T08:14:35.181Z,8.98
2022-11-25T08:17:07.505Z,8.91
2022-11-25T08:19:40.369Z,8.83
2022-11-25T08:22:12.874Z,8.80
2022-11-25T08:24:45.243Z,8.83
2022-11-25T08:27:17.432Z,8.80
2022-11-25T08:29:49.759Z,8.83
2022-11-25T08:32:21.991Z,8.85
2022-11-25T08:34:54.200Z,8.87
2022-11-25T08:37:26.299Z,8.88
2022-11-25T08:39:58.733Z,8.91
2022-11-25T08:42:31.073Z,8.92
2022-11-25T08:45:03.302Z,8.96
2022-11-25T08:47:35.544Z,8.98
2022-11-25T08:50:10.925Z,8.99
2022-11-25T08:52:43.109Z,9.03
2022-11-25T08:55:15.867Z,9.09
2022-11-25T08:57:48.088Z,9.19
2022-11-25T09:00:21.636Z,9.24
2022-11-25T09:02:53.905Z,9.27
2022-11-25T09:05:26.211Z,9.30
2022-11-25T09:07:58.391Z,9.31
2022-11-25T09:10:30.940Z,9.33
2022-11-25T09:13:03.714Z,9.33
2022-11-25T09:15:36.120Z,9.34
2022-11-25T09:18:10.345Z,9.38
2022-11-25T09:20:43.104Z,9.36
2022-11-25T09:23:15.851Z,9.37
2022-11-25T09:25:54.325Z,9.45
2022-11-25T09:28:27.149Z,9.53
2022-11-25T09:30:59.537Z,9.63
2022-11-25T09:33:31.745Z,9.73
2022-11-25T09:36:04.747Z,9.74
2022-11-25T09:38:41.677Z,9.68
2022-11-25T09:41:45.415Z,9.70
2022-11-25T09:44:45.888Z,9.74
2022-11-25T09:47:24.056Z,9.79
2022-11-25T09:50:07.293Z,9.90
2022-11-25T09:52:46.093Z,9.98
2022-11-25T09:55:22.044Z,10.04
2022-11-25T09:58:02.641Z,10.06
2022-11-25T10:00:39.236Z,10.06
2022-11-25T10:03:16.816Z,10.10
2022-11-25T10:05:53.051Z,10.16
2022-11-25T10:08:28.156Z,10.23
2022-11-25T10:11:04.570Z,10.16
2022-11-25T10:13:42.723Z,10.08
2022-11-25T10:16:27.393Z,10.05
2022-11-25T10:19:02.688Z,10.11
2022-11-25T10:21:34.955Z,10.18
2022-11-25T10:24:10.377Z,10.22
2022-11-25T10:26:44.099Z,10.32
2022-11-25T10:29:26.996Z,10.44
2022-11-25T10:32:20.817Z,10.51
2022-11-25T10:34:55.594Z,10.56
2022-11-25T10:37:30.766Z,10.58
2022-11-25T10:40:02.924Z,10.56
2022-11-25T10:42:37.062Z,10.50
2022-11-25T10:45:10.522Z,10.42
2022-11-25T10:48:03.660Z,10.45
2022-11-25T10:50:35.254Z,10.48
2022-11-25T10:53:13.767Z,10.49
2022-11-25T10:56:00.786Z,10.52
2022-11-25T10:58:35.691Z,10.57
2022-11-25T11:01:23.592Z,10.62
2022-11-25T11:04:03.755Z,10.64
2022-11-25T11:06:39.151Z,10.61
2022-11-25T11:09:35.989Z,10.60
2022-11-25T11:12:22.241Z,10.65
2022-11-25T11:15:15.298Z,10.70
2022-11-25T11:17:48.530Z,10.74
2022-11-25T11:20:25.009Z,10.88
2022-11-25T11:23:08.345Z,11.01
2022-11-25T11:25:42.936Z,11.19
2022-11-25T11:28:34.944Z,11.50
2022-11-25T11:31:09.768Z,11.83
2022-11-25T11:33:44.960Z,11.93
2022-11-25T11:36:36.125Z,12.07
2022-11-25T11:39:21.087Z,12.15
2022-11-25T11:41:56.229Z,12.21
2022-11-25T11:44:35.390Z,12.26
2022-11-25T11:47:24.383Z,12.46
2022-11-25T11:50:09.689Z,12.67
2022-11-25T11:52:56.563Z,12.91
2022-11-25T11:55:40.476Z,13.14
2022-11-25T11:58:24.447Z,13.24
2022-11-25T12:01:04.185Z,13.24
2022-11-25T12:03:39.837Z,13.23
2022-11-25T12:06:12.924Z,13.11
2022-11-25T12:08:49.375Z,13.00
2022-11-25T12:11:24.409Z,12.87
2022-11-25T12:14:01.245Z,12.82
2022-11-25T12:16:38.000Z,12.80
2022-11-25T12:19:16.483Z,12.72
2022-11-25T12:21:51.582Z,12.71
2022-11-25T12:24:27.795Z,12.59
2022-11-25T12:27:02.484Z,12.51
2022-11-25T12:29:39.765Z,12.46
2022-11-25T12:32:31.992Z,12.34
2022-11-25T12:35:07.242Z,12.28
2022-11-25T12:37:56.805Z,12.19
2022-11-25T12:40:31.825Z,12.05
2022-11-25T12:43:11.442Z,11.94
2022-11-25T12:45:44.847Z,11.90
2022-11-25T12:48:21.263Z,11.84
2022-11-25T12:51:02.827Z,11.79
2022-11-25T12:53:38.726Z,11.74
2022-11-25T12:56:18.351Z,11.72
2022-11-25T12:58:57.612Z,11.71
2022-11-25T13:01:58.693Z,11.65
2022-11-25T13:05:13.088Z,11.55
2022-11-25T13:08:00.850Z,11.47
2022-11-25T13:10:42.042Z,11.48
2022-11-25T13:13:39.838Z,11.44
2022-11-25T13:16:14.186Z,11.37
2022-11-25T13:18:47.962Z,11.30
2022-11-25T13:21:24.157Z,11.25
2022-11-25T13:23:58.935Z,11.19
2022-11-25T13:26:54.570Z,11.18
2022-11-25T13:30:04.535Z,11.19
2022-11-25T13:32:42.570Z,11.20
2022-11-25T13:35:38.951Z,11.17
2022-11-25T13:38:48.566Z,11.16
2022-11-25T13:41:40.217Z,11.08
2022-11-25T13:44:37.733Z,10.98
2022-11-25T13:47:32.711Z,11.01
2022-11-25T13:50:12.254Z,11.06
2022-11-25T13:52:49.232Z,11.03
2022-11-25T13:55:41.886Z,10.91
2022-11-25T13:58:23.184Z,10.75
2022-11-25T14:01:23.622Z,10.61
2022-11-25T14:04:03.911Z,10.57
2022-11-25T14:07:08.740Z,10.62
2022-11-25T14:09:53.624Z,10.68
2022-11-25T14:22:04.965Z,10.69
2022-11-25T14:24:41.682Z,10.66
2022-11-25T14:27:18.525Z,10.66
2022-11-25T14:29:55.829Z,10.67
2022-11-25T14:32:32.116Z,10.65
2022-11-25T14:35:07.184Z,10.64
2022-11-25T14:37:43.097Z,10.62
2022-11-25T14:40:19.815Z,10.57
2022-11-25T14:42:56.669Z,10.51
2022-11-25T14:45:30.406Z,10.49
2022-11-25T14:48:15.627Z,10.48
2022-11-25T14:51:00.210Z,10.45
2022-11-25T14:53:34.956Z,10.43
2022-11-25T14:56:08.173Z,10.40
2022-11-25T14:58:43.992Z,10.34
2022-11-25T15:01:23.794Z,10.29
2022-11-25T15:04:06.901Z,10.30
2022-11-25T15:06:40.976Z,10.35
2022-11-25T15:09:23.549Z,10.33
2022-11-25T15:11:57.557Z,10.28
2022-11-25T15:14:31.686Z,10.27
2022-11-25T15:17:09.350Z,10.28
2022-11-25T15:19:41.792Z,10.26
2022-11-25T15:22:24.226Z,10.20
2022-11-25T15:25:07.691Z,10.12
2022-11-25T15:27:46.665Z,10.04
2022-11-25T15:30:27.530Z,9.99
2022-11-25T15:33:00.776Z,9.93
2022-11-25T15:35:33.122Z,9.89
2022-11-25T15:38:20.165Z,9.89
2022-11-25T15:40:59.172Z,9.88
2022-11-25T15:43:32.837Z,9.87
2022-11-25T15:46:06.380Z,9.86
2022-11-25T15:48:41.800Z,9.84
2022-11-25T15:51:24.390Z,9.82
2022-11-25T15:53:58.785Z,9.79
2022-11-25T15:56:31.117Z,9.79
2022-11-25T15:59:03.290Z,9.81
2022-11-25T16:01:35.674Z,9.84
2022-11-25T16:04:20.814Z,9.85
2022-11-25T16:06:57.930Z,9.87
2022-11-25T16:09:33.135Z,9.88
2022-11-25T16:12:15.733Z,9.89
2022-11-25T16:14:47.911Z,9.89
2022-11-25T16:17:20.212Z,9.86
2022-11-25T16:19:52.559Z,9.82
2022-11-25T16:22:32.448Z,9.78
2022-11-25T16:25:05.923Z,9.78
2022-11-25T16:27:40.125Z,9.79
2022-11-25T16:30:21.384Z,9.83
2022-11-25T16:32:56.200Z,9.85
2022-11-25T16:35:28.471Z,9.89
2022-11-25T16:38:02.565Z,9.93
2022-11-25T16:40:39.037Z,9.96
2022-11-25T16:43:18.613Z,9.97
2022-11-25T16:45:54.527Z,9.94
2022-11-25T16:48:27.202Z,9.93
2022-11-25T16:51:01.292Z,9.91
2022-11-25T16:53:34.575Z,9.93
2022-11-25T16:56:07.870Z,9.95
2022-11-25T16:58:40.272Z,9.97
2022-11-25T17:01:16.203Z,9.98
2022-11-25T17:03:48.625Z,9.96
2022-11-25T17:06:22.641Z,9.94
2022-11-25T17:08:55.937Z,9.94
2022-11-25T17:11:27.821Z,9.93
2022-11-25T17:14:03.006Z,9.92
2022-11-25T17:16:35.506Z,9.95
2022-11-25T17:19:10.982Z,9.98
2022-11-25T17:21:43.610Z,9.99
2022-11-25T17:24:17.315Z,10.01
2022-11-25T17:26:52.139Z,9.99
2022-11-25T17:29:27.514Z,9.98
2022-11-25T17:32:00.035Z,9.95
2022-11-25T17:34:37.861Z,9.95
2022-11-25T17:37:15.559Z,9.91
2022-11-25T17:39:48.608Z,9.87
2022-11-25T17:42:23.879Z,9.83
2022-11-25T17:44:56.155Z,9.83
2022-11-25T17:47:28.473Z,9.85
2022-11-25T17:50:01.235Z,9.85
2022-11-25T17:52:33.679Z,9.82
2022-11-25T17:55:06.524Z,9.77
2022-11-25T17:57:39.903Z,9.73
2022-11-25T18:00:19.639Z,9.70
2022-11-25T18:02:52.652Z,9.68
2022-11-25T18:05:27.055Z,9.68
2022-11-25T18:07:59.295Z,9.64
2022-11-25T18:10:31.741Z,9.62
2022-11-25T18:13:04.695Z,9.63
2022-11-25T18:15:37.124Z,9.63
2022-11-25T18:18:11.227Z,9.60
2022-11-25T18:20:43.475Z,9.52
2022-11-25T18:23:15.836Z,9.45
2022-11-25T18:25:48.922Z,9.41
2022-11-25T18:28:24.889Z,9.39
2022-11-25T18:30:58.786Z,9.39
2022-11-25T18:33:31.071Z,9.37
2022-11-25T18:36:03.512Z,9.31
2022-11-25T18:38:35.751Z,9.23
2022-11-25T18:41:10.271Z,9.16
2022-11-25T18:43:42.559Z,9.14
2022-11-25T18:46:15.398Z,9.09
2022-11-25T18:48:47.660Z,8.90
2022-11-25T18:51:19.828Z,8.70
2022-11-25T18:53:52.874Z,8.54
2022-11-25T18:56:25.061Z,8.43
2022-11-25T18:59:00.013Z,8.37
2022-11-25T19:01:32.393Z,8.35
2022-11-25T19:04:04.935Z,8.30
2022-11-25T19:06:35.727Z,8.21
2022-11-25T19:09:08.060Z,8.09
2022-11-25T19:11:42.621Z,8.05
2022-11-25T19:14:17.096Z,8.02
2022-11-25T19:16:50.401Z,8.06
2022-11-25T19:19:22.719Z,8.13
2022-11-25T19:21:54.924Z,8.17
2022-11-25T19:24:27.229Z,8.20
2022-11-25T19:26:59.798Z,8.22
2022-11-25T19:29:41.483Z,8.22
2022-11-25T19:32:22.244Z,8.25
2022-11-25T19:34:56.517Z,8.25
2022-11-25T19:37:30.307Z,8.24
2022-11-25T19:40:05.086Z,8.25
2022-11-25T19:42:37.358Z,8.27
2022-11-25T19:45:11.139Z,8.24
2022-11-25T19:47:43.631Z,8.22
2022-11-25T19:50:21.796Z,8.15
2022-11-25T19:52:54.422Z,8.09
2022-11-25T19:55:27.488Z,8.07
2022-11-25T19:58:00.156Z,8.00
2022-11-25T20:00:30.710Z,8.01
2022-11-25T20:03:03.070Z,8.02
2022-11-25T20:05:37.037Z,8.06
2022-11-25T20:08:11.743Z,8.08
2022-11-25T20:10:44.070Z,8.05
2022-11-25T20:13:16.383Z,8.04
2022-11-25T20:15:48.994Z,8.08
2022-11-25T20:18:23.440Z,8.07
2022-11-25T20:20:59.902Z,8.06
2022-11-25T20:23:38.567Z,8.10
2022-11-25T20:26:19.499Z,8.10
2022-11-25T20:28:51.787Z,8.05
2022-11-25T20:31:28.745Z,8.02
2022-11-25T20:34:02.515Z,7.99
2022-11-25T20:36:35.077Z,7.94
2022-11-25T20:39:07.482Z,7.95
2022-11-25T20:41:39.673Z,7.97
2022-11-25T20:44:15.015Z,8.02
2022-11-25T20:46:47.227Z,8.06
2022-11-25T20:49:27.332Z,8.08
2022-11-25T20:52:01.287Z,7.98
2022-11-25T20:54:36.417Z,7.84
2022-11-25T20:57:12.273Z,7.70
2022-11-25T20:59:45.304Z,7.64
2022-11-25T21:02:21.755Z,7.59
2022-11-25T21:04:54.211Z,7.52
2022-11-25T21:07:26.705Z,7.46
2022-11-25T21:09:59.018Z,7.44
2022-11-25T21:12:31.184Z,7.42
2022-11-25T21:15:03.666Z,7.38
2022-11-25T21:17:36.057Z,7.34
2022-11-25T21:20:10.062Z,7.31
2022-11-25T21:22:44.418Z,7.26
2022-11-25T21:25:20.475Z,7.23
2022-11-25T21:27:53.177Z,7.23
2022-11-25T21:30:27.521Z,7.17
2022-11-25T21:33:01.504Z,7.10
2022-11-25T21:35:35.547Z,7.02
2022-11-25T21:38:10.072Z,6.97
2022-11-25T21:40:44.049Z,6.91
2022-11-25T21:43:21.553Z,6.87
2022-11-25T21:45:58.564Z,6.83
2022-11-25T21:48:31.516Z,6.75
2022-11-25T21:51:04.669Z,6.73
2022-11-25T21:53:37.693Z,6.72
2022-11-25T21:56:18.698Z,6.70
2022-11-25T21:58:51.390Z,6.69
2022-11-25T22:01:24.165Z,6.68
2022-11-25T22:03:55.100Z,6.65
2022-11-25T22:06:29.153Z,6.62
2022-11-25T22:09:01.564Z,6.63
2022-11-25T22:11:35.787Z,6.64
2022-11-25T22:14:12.969Z,6.59
2022-11-25T22:16:45.576Z,6.53
2022-11-25T22:19:22.778Z,6.48
2022-11-25T22:21:55.310Z,6.46
2022-11-25T22:24:27.793Z,6.49
2022-11-25T22:27:00.369Z,6.50
2022-11-25T22:29:35.998Z,6.48
2022-11-25T22:32:12.818Z,6.42
2022-11-25T22:34:45.648Z,6.38
2022-11-25T22:37:20.212Z,6.33
2022-11-25T22:39:53.057Z,6.26
2022-11-25T22:42:28.701Z,6.17
2022-11-25T22:45:02.368Z,6.10
2022-11-25T22:47:37.660Z,6.10
2022-11-25T22:50:19.241Z,6.11
2022-11-25T22:52:52.592Z,6.15
2022-11-25T22:55:27.362Z,6.18
2022-11-25T22:58:01.309Z,6.16
2022-11-25T23:00:37.411Z,6.13
2022-11-25T23:03:14.244Z,6.07
2022-11-25T23:05:46.846Z,6.00
2022-11-25T23:08:21.206Z,5.94
2022-11-25T23:10:54.328Z,5.89
2022-11-25T23:13:27.319Z,5.91
2022-11-25T23:15:58.813Z,5.94
2022-11-25T23:18:38.119Z,5.94
2022-11-25T23:21:18.485Z,5.96
2022-11-25T23:23:51.118Z,5.95
2022-11-25T23:26:23.745Z,5.94
2022-11-25T23:28:56.485Z,5.98
2022-11-25T23:31:28.984Z,5.95
2022-11-25T23:34:01.578Z,5.95
2022-11-25T23:36:39.674Z,5.97
2022-11-25T23:39:20.703Z,5.98
2022-11-25T23:41:53.747Z,6.01
2022-11-25T23:44:28.381Z,6.01
2022-11-25T23:47:03.893Z,5.99
2022-11-25T23:49:38.753Z,5.98
2022-11-25T23:52:14.051Z,6.01
2022-11-25T23:54:48.200Z,6.01
2022-11-25T23:57:22.706Z,6.02
2022-11-25T23:59:55.425Z,6.06
